createdAt,value
2022-10-13T00:18:32.589Z,10.5
2022-10-13T00:28:32.686Z,10.4
2022-10-13T00:38:33.691Z,10.5
2022-10-13T00:48:34.305Z,10.6
2022-10-13T00:58:34.691Z,10.7
2022-10-13T01:08:35.681Z,10.6
2022-10-13T01:18:36.450Z,10.6
2022-10-13T01:28:37.341Z,10.8
2022-10-13T01:38:37.755Z,10.7
2022-10-13T01:48:38.176Z,10.7
2022-10-13T01:58:38.476Z,10.7
2022-10-13T02:08:39.494Z,10.7
2022-10-13T02:18:40.099Z,10.7
2022-10-13T02:28:40.832Z,10.7
2022-10-13T02:38:40.947Z,10.6
2022-10-13T02:48:41.377Z,10.7
2022-10-13T02:58:41.594Z,10.7
2022-10-13T03:08:42.492Z,10.6
2022-10-13T03:18:42.741Z,10.6
2022-10-13T03:28:43.114Z,10.6
2022-10-13T03:38:44.096Z,10.7
2022-10-13T03:48:44.351Z,10.8
2022-10-13T03:58:44.619Z,10.9
2022-10-13T04:08:44.853Z,10.9
2022-10-13T04:18:45.408Z,10.9
2022-10-13T04:28:45.689Z,10.9
2022-10-13T04:38:46.488Z,11.2
2022-10-13T04:48:46.768Z,11.2
2022-10-13T04:58:47.242Z,11.3
2022-10-13T05:08:48.044Z,11.4
2022-10-13T05:18:48.298Z,11.4
2022-10-13T05:28:48.532Z,11.4
2022-10-13T05:38:49.172Z,11.3
2022-10-13T05:48:56.285Z,11.3
2022-10-13T06:08:57.397Z,11.4
2022-10-13T06:18:57.484Z,11.5
2022-10-13T06:28:59.644Z,11.6
2022-10-13T06:38:58.123Z,11.7
2022-10-13T06:58:58.748Z,12.1
2022-10-13T07:08:58.974Z,12.3
2022-10-13T07:18:59.337Z,12.3
2022-10-13T07:29:00.307Z,12.3
2022-10-13T07:39:00.314Z,12.6
2022-10-13T07:49:00.564Z,13
2022-10-13T07:59:01.490Z,13
2022-10-13T08:09:02.357Z,13.2
2022-10-13T08:19:02.744Z,13.4
2022-10-13T08:29:20.536Z,13.6
2022-10-13T08:39:04.259Z,13.9
2022-10-13T08:49:04.733Z,14.1
2022-10-13T08:59:05.257Z,14.2
2022-10-13T09:09:05.385Z,14.3
2022-10-13T09:19:05.975Z,14.4
2022-10-13T09:29:06.137Z,14.5
2022-10-13T09:49:07.201Z,15.6
2022-10-13T09:59:08.011Z,16.1
2022-10-13T10:09:08.727Z,17
2022-10-13T10:19:09.343Z,16.9
2022-10-13T10:29:10.243Z,16.7
2022-10-13T10:39:10.542Z,16.7
2022-10-13T10:49:11.200Z,16.8
2022-10-13T10:49:16.532Z,16.8
2022-10-13T10:59:17.452Z,17
2022-10-13T11:09:17.653Z,17.4
2022-10-13T11:19:18.367Z,17.7
2022-10-13T11:29:18.670Z,17.8
2022-10-13T11:59:20.337Z,17.1
2022-10-13T12:09:20.864Z,17.1
2022-10-13T12:19:22.049Z,16.8
2022-10-13T12:29:22.176Z,16.5
2022-10-13T12:39:22.452Z,16.3
2022-10-13T12:49:22.612Z,16.3
2022-10-13T12:59:22.771Z,16.1
2022-10-13T13:09:23.265Z,15.9
2022-10-13T13:19:24.108Z,15.4
2022-10-13T13:29:24.411Z,14.9
2022-10-13T13:49:25.888Z,14.7
2022-10-13T13:59:26.709Z,14.5
2022-10-13T14:09:26.957Z,14.5
2022-10-13T14:19:27.237Z,14.8
2022-10-13T14:29:34.470Z,14.7
2022-10-13T14:39:28.116Z,14.6
2022-10-13T14:49:28.387Z,14.5
2022-10-13T14:59:28.804Z,14.3
2022-10-13T15:09:38.556Z,14.3
2022-10-13T15:19:30.432Z,14.2
2022-10-13T15:29:30.620Z,14.2
2022-10-13T15:39:31.501Z,14.2
2022-10-13T15:49:32.092Z,14.2
2022-10-13T15:59:32.478Z,14.2
2022-10-13T16:09:32.568Z,14.2
2022-10-13T16:19:33.187Z,14.2
2022-10-13T16:29:33.852Z,14.1
2022-10-13T16:39:36.522Z,14
2022-10-13T16:49:34.725Z,14
2022-10-13T16:59:35.798Z,14
2022-10-13T17:09:36.487Z,14
2022-10-13T17:19:37.139Z,14
2022-10-13T17:39:39.120Z,13.9
2022-10-13T17:49:39.256Z,13.7
2022-10-13T17:59:39.678Z,13.2
2022-10-13T18:09:40.003Z,13
2022-10-13T18:19:40.490Z,13
2022-10-13T18:29:40.248Z,13
2022-10-13T18:39:40.324Z,13.1
2022-10-13T18:49:41.105Z,13.1
2022-10-13T18:59:41.554Z,13.1
2022-10-13T19:09:41.609Z,13
2022-10-13T19:19:42.194Z,13
2022-10-13T19:29:42.949Z,13
2022-10-13T19:39:43.326Z,13.1
2022-10-13T20:09:45.298Z,13.1
2022-10-13T20:19:46.157Z,13.1
2022-10-13T20:29:53.199Z,13
2022-10-13T20:39:46.431Z,13
2022-10-13T20:49:46.927Z,12.9
2022-10-13T20:59:47.359Z,12.9
2022-10-13T21:09:51.500Z,12.9
2022-10-13T21:19:47.793Z,12.9
2022-10-13T21:29:48.187Z,12.9
2022-10-13T21:39:48.722Z,12.8
2022-10-13T21:59:49.662Z,12.6
2022-10-13T22:09:49.876Z,12.5
2022-10-13T22:19:50.417Z,12.5
2022-10-13T22:29:51.457Z,12.5
2022-10-13T22:39:51.573Z,12.4
2022-10-13T22:49:51.869Z,12.5
2022-10-13T22:59:52.050Z,12.5
2022-10-13T23:09:52.480Z,12.4
2022-10-13T23:19:53.343Z,12.5
2022-10-13T23:29:53.761Z,12.4
2022-10-13T23:39:54.652Z,12.4
2022-10-13T23:49:55.175Z,12.4
2022-10-13T23:59:55.259Z,12.4
